Time;durP1;ratioP1;P1;durP2;ratioP2;P2;SDS_P1;SDS_P2;PMS_P1;PMS_P2;Temp;Humidity;BMP_temperature;BMP_pressure;BME280_temperature;BME280_humidity;BME280_pressure;Samples;Min_cycle;Max_cycle;Signal;HPM_P1;HPM_P2
2022/03/20 00:00:26;;;;;;;7.93;4.80;;;5.50;99.90;;;;;;5002666;28;20060;-80
2022/03/20 00:02:52;;;;;;;10.48;5.45;;;5.60;99.90;;;;;;5035082;28;20375;-80
2022/03/20 00:05:18;;;;;;;7.47;4.93;;;5.60;99.90;;;;;;5016992;28;20055;-78
2022/03/20 00:07:46;;;;;;;9.80;5.43;;;5.50;99.90;;;;;;5021730;28;20041;-74
2022/03/20 00:10:11;;;;;;;6.30;5.03;;;5.40;99.90;;;;;;5036742;28;20050;-73
2022/03/20 00:12:37;;;;;;;9.75;5.50;;;5.40;99.90;;;;;;5018367;28;20054;-74
2022/03/20 00:15:03;;;;;;;6.30;5.55;;;5.40;99.90;;;;;;5047093;28;20038;-76
2022/03/20 00:17:29;;;;;;;7.97;5.35;;;5.40;99.90;;;;;;5017830;28;20041;-79
2022/03/20 00:19:55;;;;;;;8.27;5.40;;;5.40;99.90;;;;;;5033288;28;20095;-79
2022/03/20 00:22:21;;;;;;;11.02;5.55;;;5.40;99.90;;;;;;5016173;28;20081;-79
2022/03/20 00:24:47;;;;;;;7.72;5.57;;;5.40;99.90;;;;;;5016011;28;20485;-79
2022/03/20 00:27:13;;;;;;;8.68;5.45;;;5.30;99.90;;;;;;5033516;28;20084;-79
2022/03/20 00:29:39;;;;;;;6.57;5.05;;;5.30;99.90;;;;;;5016031;28;20046;-79
2022/03/20 00:32:05;;;;;;;10.32;5.63;;;5.20;99.90;;;;;;5032789;28;20056;-81
2022/03/20 00:34:31;;;;;;;15.18;5.85;;;5.20;99.90;;;;;;5032331;28;20057;-81
2022/03/20 00:36:57;;;;;;;11.38;5.53;;;5.20;99.90;;;;;;5033247;28;20398;-78
2022/03/20 00:39:22;;;;;;;9.75;5.82;;;5.20;99.90;;;;;;5015926;28;20053;-79
2022/03/20 00:41:48;;;;;;;9.82;5.45;;;5.20;99.90;;;;;;5033430;28;20042;-79
2022/03/20 00:44:14;;;;;;;11.30;5.32;;;5.10;99.90;;;;;;5032617;28;20041;-80
2022/03/20 00:46:39;;;;;;;9.57;5.60;;;5.10;99.90;;;;;;5032892;28;20119;-82
2022/03/20 00:49:05;;;;;;;10.10;5.95;;;5.10;99.90;;;;;;5033022;28;20455;-80
2022/03/20 00:51:31;;;;;;;7.63;5.50;;;5.00;99.90;;;;;;5033713;28;20045;-80
2022/03/20 00:53:57;;;;;;;8.90;6.18;;;5.00;99.90;;;;;;5016530;28;20045;-80
2022/03/20 00:56:23;;;;;;;10.73;5.85;;;5.00;99.90;;;;;;5033891;28;20045;-80
2022/03/20 00:58:48;;;;;;;10.50;5.80;;;4.90;99.90;;;;;;5015534;28;20099;-78
2022/03/20 01:01:14;;;;;;;13.50;6.28;;;5.00;99.90;;;;;;5015114;28;20128;-79
2022/03/20 01:03:41;;;;;;;8.43;5.15;;;4.90;99.90;;;;;;5015462;28;20088;-79
2022/03/20 01:06:07;;;;;;;9.82;6.18;;;4.80;99.90;;;;;;5016038;28;20060;-78
2022/03/20 01:08:37;;;;;;;9.98;5.80;;;4.80;99.90;;;;;;4986093;28;20057;-78
2022/03/20 01:11:03;;;;;;;9.95;5.68;;;4.80;99.90;;;;;;5036270;28;20045;-80
2022/03/20 01:13:29;;;;;;;8.88;5.80;;;4.70;99.90;;;;;;5037443;28;20049;-77
2022/03/20 01:15:58;;;;;;;12.75;6.28;;;4.70;99.90;;;;;;5017099;28;20050;-82
2022/03/20 01:18:26;;;;;;;9.63;6.68;;;4.70;99.90;;;;;;5032656;28;20048;-79
2022/03/20 01:20:53;;;;;;;8.40;5.80;;;4.70;99.90;;;;;;5034886;28;20048;-79
2022/03/20 01:23:20;;;;;;;9.32;5.28;;;4.70;99.90;;;;;;5000610;28;20393;-77
2022/03/20 01:25:47;;;;;;;8.30;6.00;;;4.60;99.90;;;;;;5017684;28;20410;-77
2022/03/20 01:28:14;;;;;;;11.48;6.70;;;4.60;99.90;;;;;;5016485;28;20441;-79
2022/03/20 01:30:39;;;;;;;10.15;6.18;;;4.60;99.90;;;;;;5034010;28;20108;-78
2022/03/20 01:33:05;;;;;;;9.95;6.03;;;4.60;99.90;;;;;;5015354;28;20045;-79
2022/03/20 01:35:30;;;;;;;10.82;5.75;;;4.70;99.90;;;;;;4999521;28;20046;-79
2022/03/20 01:37:56;;;;;;;8.27;6.30;;;4.60;99.90;;;;;;5032844;28;20063;-79
2022/03/20 01:40:22;;;;;;;11.68;6.47;;;4.60;99.90;;;;;;5033502;28;20435;-79
2022/03/20 01:42:48;;;;;;;9.18;5.88;;;4.50;99.90;;;;;;5033221;28;20046;-79
2022/03/20 01:45:20;;;;;;;10.82;6.57;;;4.50;99.90;;;;;;5032719;28;20068;-78
2022/03/20 01:47:47;;;;;;;10.27;6.40;;;4.50;99.90;;;;;;5031721;28;20058;-79
2022/03/20 01:50:20;;;;;;;11.98;7.10;;;4.50;99.90;;;;;;5032475;28;20425;-78
2022/03/20 01:52:46;;;;;;;10.38;6.97;;;4.50;99.90;;;;;;5017246;28;20103;-78
2022/03/20 01:55:13;;;;;;;11.15;6.93;;;4.40;99.90;;;;;;5033970;28;20060;-80
2022/03/20 01:57:39;;;;;;;10.50;6.20;;;4.40;99.90;;;;;;5036113;28;20050;-79
2022/03/20 02:00:09;;;;;;;10.75;6.60;;;4.40;99.90;;;;;;5011330;28;20451;-75
2022/03/20 02:02:34;;;;;;;10.63;6.63;;;4.40;99.90;;;;;;5057218;28;20041;-74
2022/03/20 02:05:01;;;;;;;13.25;7.25;;;4.40;99.90;;;;;;5056828;28;20479;-76
2022/03/20 02:07:27;;;;;;;13.90;7.15;;;4.30;99.90;;;;;;5015141;28;20391;-77
2022/03/20 02:09:53;;;;;;;11.57;7.22;;;4.30;99.90;;;;;;5037639;28;20056;-80
2022/03/20 02:12:19;;;;;;;10.65;7.10;;;4.30;99.90;;;;;;5018872;28;20046;-78
2022/03/20 02:14:44;;;;;;;9.40;6.82;;;4.30;99.90;;;;;;5004750;28;20041;-77
2022/03/20 02:17:10;;;;;;;10.52;6.90;;;4.20;99.90;;;;;;5036790;28;20400;-79
2022/03/20 02:19:38;;;;;;;13.73;7.20;;;4.20;99.90;;;;;;5036339;28;20164;-79
2022/03/20 02:22:04;;;;;;;11.10;7.47;;;4.20;99.90;;;;;;5036344;28;20075;-78
2022/03/20 02:24:41;;;;;;;14.23;7.75;;;4.20;99.90;;;;;;5035038;28;20052;-79
2022/03/20 02:27:15;;;;;;;14.23;7.82;;;4.20;99.90;;;;;;5035380;28;20041;-80
2022/03/20 02:29:41;;;;;;;10.25;7.72;;;4.20;99.90;;;;;;5018743;28;20050;-79
2022/03/20 02:32:08;;;;;;;11.52;8.20;;;4.10;99.90;;;;;;5017557;28;20049;-80
2022/03/20 02:34:34;;;;;;;11.23;7.47;;;4.10;99.90;;;;;;5035720;28;20111;-80
2022/03/20 02:37:03;;;;;;;13.70;8.10;;;4.10;99.90;;;;;;5017873;28;20477;-79
2022/03/20 02:39:29;;;;;;;13.25;8.18;;;4.10;99.90;;;;;;5035167;28;20055;-80
2022/03/20 02:41:55;;;;;;;14.35;7.93;;;4.00;99.90;;;;;;5017941;28;20128;-79
2022/03/20 02:44:22;;;;;;;13.05;8.40;;;4.10;99.90;;;;;;5017652;28;20052;-79
2022/03/20 02:46:48;;;;;;;14.85;8.75;;;4.10;99.90;;;;;;5017552;28;20050;-78
2022/03/20 02:49:15;;;;;;;10.90;8.10;;;4.00;99.90;;;;;;5017209;28;20055;-79
2022/03/20 02:51:41;;;;;;;16.05;8.35;;;4.00;99.90;;;;;;5035274;28;20049;-80
2022/03/20 02:54:06;;;;;;;11.40;8.57;;;4.00;99.90;;;;;;5035231;28;20561;-80
2022/03/20 02:56:33;;;;;;;12.13;8.82;;;4.00;99.90;;;;;;5034829;28;20048;-79
2022/03/20 02:59:00;;;;;;;12.48;8.82;;;3.90;99.90;;;;;;5035318;28;20056;-79
2022/03/20 03:01:25;;;;;;;18.83;9.63;;;3.90;99.90;;;;;;5034760;28;20049;-78
2022/03/20 03:03:53;;;;;;;13.40;9.07;;;4.00;99.90;;;;;;5035044;28;20099;-79
2022/03/20 03:06:19;;;;;;;13.00;9.18;;;3.90;99.90;;;;;;5034585;28;20045;-80
2022/03/20 03:11:29;;;;;;;15.85;9.95;;;3.90;99.90;;;;;;5034620;28;20504;-79
2022/03/20 03:13:55;;;;;;;12.63;9.50;;;3.90;99.90;;;;;;5034828;28;20069;-78
2022/03/20 03:16:20;;;;;;;13.00;8.98;;;3.90;99.90;;;;;;5016733;28;20049;-79
2022/03/20 03:18:47;;;;;;;16.63;9.73;;;3.90;99.90;;;;;;5034855;28;20050;-79
2022/03/20 03:21:17;;;;;;;16.33;9.30;;;3.80;99.90;;;;;;5016705;28;20164;-79
2022/03/20 03:23:43;;;;;;;15.32;10.18;;;3.80;99.90;;;;;;5000920;28;20045;-79
2022/03/20 03:26:09;;;;;;;14.40;10.00;;;3.80;99.90;;;;;;5001033;28;20045;-79
2022/03/20 03:28:35;;;;;;;16.90;9.52;;;3.80;99.90;;;;;;5016549;28;20517;-79
2022/03/20 03:31:05;;;;;;;14.68;10.50;;;3.80;99.90;;;;;;5034769;28;20089;-79
2022/03/20 03:33:30;;;;;;;17.10;10.50;;;3.80;99.90;;;;;;5016638;28;20046;-79
2022/03/20 03:35:57;;;;;;;14.82;9.95;;;3.80;99.90;;;;;;5035407;28;20282;-77
2022/03/20 03:38:30;;;;;;;14.90;10.27;;;3.70;99.90;;;;;;5017431;28;20055;-79
2022/03/20 03:40:56;;;;;;;18.88;10.32;;;3.70;99.90;;;;;;5029429;28;20057;-78
2022/03/20 03:43:22;;;;;;;14.43;10.32;;;3.70;99.90;;;;;;5025846;28;20064;-74
2022/03/20 03:45:48;;;;;;;17.42;10.23;;;3.70;99.90;;;;;;5021478;28;20046;-74
2022/03/20 03:48:13;;;;;;;15.15;10.73;;;3.70;99.90;;;;;;5034606;28;20054;-75
2022/03/20 03:50:41;;;;;;;15.70;10.38;;;3.60;99.90;;;;;;5034214;28;20041;-77
2022/03/20 03:53:08;;;;;;;15.98;11.18;;;3.60;99.90;;;;;;5001291;28;20069;-79
2022/03/20 03:55:33;;;;;;;14.68;10.90;;;3.60;99.90;;;;;;5013305;28;20042;-79
2022/03/20 03:57:59;;;;;;;16.27;11.10;;;3.60;99.90;;;;;;4997241;28;20513;-79
2022/03/20 04:00:26;;;;;;;15.18;10.20;;;3.60;99.90;;;;;;5013915;28;20046;-80
2022/03/20 04:02:52;;;;;;;13.30;10.27;;;3.60;99.90;;;;;;5014144;28;20053;-79
2022/03/20 04:05:17;;;;;;;13.23;10.60;;;3.50;99.90;;;;;;5013960;28;20046;-81
2022/03/20 04:07:45;;;;;;;15.68;11.00;;;3.50;99.90;;;;;;5012964;28;20413;-79
2022/03/20 04:10:10;;;;;;;15.85;11.07;;;3.50;99.90;;;;;;5012919;28;20081;-79
2022/03/20 04:12:37;;;;;;;15.88;11.38;;;3.50;99.90;;;;;;5012507;28;20100;-80
2022/03/20 04:15:07;;;;;;;15.73;10.95;;;3.50;99.90;;;;;;5013086;28;20046;-80
2022/03/20 04:17:32;;;;;;;17.92;11.73;;;3.40;99.90;;;;;;4996529;28;20053;-79
2022/03/20 04:19:58;;;;;;;18.55;11.77;;;3.40;99.90;;;;;;5013733;28;20116;-79
2022/03/20 04:22:25;;;;;;;17.02;11.20;;;3.40;99.90;;;;;;4996184;28;20085;-79
2022/03/20 04:24:51;;;;;;;17.05;11.50;;;3.40;99.90;;;;;;5012876;28;20109;-80
2022/03/20 04:27:17;;;;;;;16.15;11.30;;;3.30;99.90;;;;;;5014011;28;20125;-79
2022/03/20 04:29:43;;;;;;;20.13;11.10;;;3.30;99.90;;;;;;5013310;28;20049;-79
2022/03/20 04:32:09;;;;;;;17.13;11.68;;;3.30;99.90;;;;;;5013703;28;20046;-79
2022/03/20 04:34:35;;;;;;;17.30;12.07;;;3.30;99.90;;;;;;5012132;28;20053;-80
2022/03/20 04:37:04;;;;;;;18.23;12.18;;;3.30;99.90;;;;;;5012519;28;20095;-80
2022/03/20 04:39:30;;;;;;;18.42;11.95;;;3.30;99.90;;;;;;5013625;28;20390;-79
2022/03/20 04:41:55;;;;;;;17.90;12.13;;;3.20;99.90;;;;;;5013762;28;20053;-79
2022/03/20 04:44:22;;;;;;;15.57;11.57;;;3.20;99.90;;;;;;5013424;28;20124;-79
2022/03/20 04:46:49;;;;;;;18.98;12.50;;;3.20;99.90;;;;;;5020759;28;20100;-79
2022/03/20 04:58:29;;;;;;;16.85;12.20;;;3.20;99.90;;;;;;5033139;28;20085;-79
2022/03/20 05:00:22;;;;;;;15.95;12.60;;;3.10;99.90;;;;;;5015621;28;20099;-79
2022/03/20 05:02:48;;;;;;;19.58;12.82;;;3.10;99.90;;;;;;5032628;28;20437;-80
2022/03/20 05:05:18;;;;;;;16.88;12.30;;;3.00;99.90;;;;;;5015265;28;20048;-79
2022/03/20 05:07:43;;;;;;;15.98;12.95;;;3.00;99.90;;;;;;5032724;28;20442;-79
2022/03/20 05:15:39;;;;;;;17.25;12.40;;;3.00;99.90;;;;;;5033511;28;20095;-79
2022/03/20 05:18:08;;;;;;;18.58;13.05;;;2.90;99.90;;;;;;5033302;28;20046;-80
2022/03/20 05:20:34;;;;;;;17.23;13.18;;;2.90;99.90;;;;;;5051670;28;20052;-76
2022/03/20 05:23:00;;;;;;;17.35;13.27;;;2.90;99.90;;;;;;5002624;28;20042;-74
2022/03/20 05:25:26;;;;;;;17.00;13.27;;;2.90;99.90;;;;;;5051151;28;20125;-75
2022/03/20 05:27:52;;;;;;;20.25;13.98;;;2.90;99.90;;;;;;5035529;28;20444;-79
2022/03/20 05:30:17;;;;;;;18.25;13.52;;;2.90;99.90;;;;;;5033127;28;20049;-80
2022/03/20 05:32:43;;;;;;;17.85;12.80;;;2.90;99.90;;;;;;5018656;28;20045;-80
2022/03/20 05:35:09;;;;;;;17.98;14.18;;;2.80;99.90;;;;;;5018964;28;20047;-80
2022/03/20 05:37:35;;;;;;;19.20;14.38;;;2.90;99.90;;;;;;5036422;28;20128;-78
2022/03/20 05:40:02;;;;;;;17.73;13.77;;;2.90;99.90;;;;;;5019116;28;20046;-79
2022/03/20 05:42:27;;;;;;;19.60;13.23;;;2.80;99.90;;;;;;5036642;28;20088;-80
2022/03/20 05:44:53;;;;;;;19.23;14.13;;;2.80;99.90;;;;;;5036286;28;20084;-80
2022/03/20 05:47:19;;;;;;;20.00;13.55;;;2.80;99.90;;;;;;5018522;28;20053;-80
2022/03/20 05:49:46;;;;;;;17.70;12.80;;;2.70;99.90;;;;;;5018625;28;20049;-80
2022/03/20 05:52:13;;;;;;;21.83;14.63;;;2.80;99.90;;;;;;5036310;28;20048;-80
2022/03/20 05:54:39;;;;;;;20.00;14.77;;;2.70;99.90;;;;;;5036137;28;20041;-80
2022/03/20 05:59:53;;;;;;;21.30;14.55;;;2.70;99.90;;;;;;5035891;28;20049;-78
2022/03/20 06:02:19;;;;;;;18.80;14.27;;;2.70;99.90;;;;;;5019403;28;20049;-79
2022/03/20 06:04:45;;;;;;;20.98;13.93;;;2.70;99.90;;;;;;5018344;28;20068;-79
2022/03/20 06:07:11;;;;;;;18.88;14.93;;;2.70;99.90;;;;;;5018585;28;20045;-79
2022/03/20 06:09:37;;;;;;;22.40;14.82;;;2.70;99.90;;;;;;5018179;28;20048;-80
2022/03/20 06:12:03;;;;;;;21.85;15.25;;;2.70;99.90;;;;;;5018333;28;20068;-80
2022/03/20 06:14:29;;;;;;;19.25;14.80;;;2.70;99.90;;;;;;5018426;28;20092;-78
2022/03/20 06:16:54;;;;;;;22.42;14.48;;;2.70;99.90;;;;;;5035167;28;20490;-81
2022/03/20 06:19:20;;;;;;;21.38;14.45;;;2.70;99.90;;;;;;5035848;28;20092;-80
2022/03/20 06:21:47;;;;;;;18.92;14.85;;;2.80;99.90;;;;;;5017981;28;20100;-79
2022/03/20 06:24:12;;;;;;;22.02;15.55;;;2.80;99.90;;;;;;5034585;28;20474;-78
2022/03/20 06:26:38;;;;;;;20.05;14.90;;;2.80;99.90;;;;;;5017833;28;20095;-81
2022/03/20 06:29:07;;;;;;;21.75;15.75;;;2.80;99.90;;;;;;5018297;28;20050;-79
2022/03/20 06:31:32;;;;;;;19.02;13.93;;;2.80;99.90;;;;;;5001787;28;20053;-79
2022/03/20 06:33:58;;;;;;;20.58;15.77;;;2.80;99.90;;;;;;5035312;28;20049;-80
2022/03/20 06:36:24;;;;;;;20.77;15.30;;;2.80;99.90;;;;;;5001785;28;20393;-82
2022/03/20 06:38:50;;;;;;;18.60;14.93;;;2.90;99.90;;;;;;5035167;28;20041;-81
2022/03/20 06:41:17;;;;;;;23.60;15.05;;;2.90;99.90;;;;;;5035609;28;20075;-80
2022/03/20 06:43:43;;;;;;;22.40;15.63;;;2.90;99.90;;;;;;5017588;28;20072;-79
2022/03/20 06:46:08;;;;;;;24.17;15.93;;;2.90;99.90;;;;;;5035276;28;20041;-81
2022/03/20 06:48:34;;;;;;;21.63;15.68;;;3.00;99.90;;;;;;5017623;28;20136;-80
2022/03/20 06:51:00;;;;;;;21.48;15.30;;;3.00;99.90;;;;;;5020294;28;20099;-81
2022/03/20 06:53:26;;;;;;;20.63;15.23;;;3.00;99.90;;;;;;5019729;28;20459;-79
2022/03/20 06:55:51;;;;;;;22.05;16.15;;;3.10;99.90;;;;;;5018205;28;20524;-79
2022/03/20 06:58:17;;;;;;;23.35;16.17;;;3.10;99.90;;;;;;5046208;28;20042;-72
2022/03/20 07:00:44;;;;;;;24.00;16.60;;;3.10;99.90;;;;;;5021577;28;20072;-83
2022/03/20 07:03:09;;;;;;;21.42;15.70;;;3.20;99.90;;;;;;5040686;28;20045;-79
2022/03/20 07:05:36;;;;;;;23.35;16.85;;;3.30;99.90;;;;;;5032863;28;20524;-78
2022/03/20 07:08:02;;;;;;;21.38;16.35;;;3.20;99.90;;;;;;5017732;28;20041;-80
2022/03/20 07:10:28;;;;;;;23.10;16.48;;;3.30;99.90;;;;;;5001721;28;20091;-80
2022/03/20 07:13:48;;;;;;;21.35;15.93;;;3.30;99.90;;;;;;5017081;28;20496;-80
2022/03/20 07:15:40;;;;;;;21.33;16.63;;;3.30;99.90;;;;;;5034957;28;20049;-80
2022/03/20 07:18:06;;;;;;;22.85;16.13;;;3.40;99.90;;;;;;5034647;28;20167;-81
2022/03/20 07:20:31;;;;;;;21.33;16.73;;;3.50;99.90;;;;;;5035028;28;20128;-81
2022/03/20 07:23:00;;;;;;;20.92;17.08;;;3.60;99.90;;;;;;5016825;28;20041;-80
2022/03/20 07:30:56;;;;;;;22.20;17.05;;;3.80;99.90;;;;;;5034549;28;20402;-81
2022/03/20 07:33:23;;;;;;;20.52;16.33;;;3.80;99.80;;;;;;4985178;28;20045;-81
2022/03/20 07:35:49;;;;;;;22.08;16.55;;;3.90;99.50;;;;;;5016728;28;20054;-82
2022/03/20 07:38:15;;;;;;;20.92;16.42;;;4.00;99.50;;;;;;5017239;28;20053;-80
2022/03/20 07:40:41;;;;;;;21.73;16.67;;;4.10;99.30;;;;;;5016808;28;20042;-79
2022/03/20 07:43:07;;;;;;;21.25;16.23;;;4.10;99.00;;;;;;5034259;28;20343;-80
2022/03/20 07:45:32;;;;;;;19.48;15.88;;;4.10;98.80;;;;;;5000706;28;20111;-80
2022/03/20 07:47:58;;;;;;;20.45;15.80;;;4.20;98.50;;;;;;5034115;28;20062;-80
2022/03/20 07:50:24;;;;;;;20.20;16.58;;;4.20;98.50;;;;;;5034356;28;20057;-80
2022/03/20 07:52:50;;;;;;;20.60;16.35;;;4.20;98.10;;;;;;5016302;28;20045;-81
2022/03/20 07:55:17;;;;;;;21.60;17.15;;;4.20;97.90;;;;;;5016045;28;20046;-80
2022/03/20 07:57:43;;;;;;;22.63;16.77;;;4.20;97.60;;;;;;5016667;28;20136;-81
2022/03/20 08:00:09;;;;;;;21.67;16.33;;;4.20;97.40;;;;;;5016083;28;20085;-80
2022/03/20 08:02:34;;;;;;;23.08;16.73;;;4.30;97.50;;;;;;5016385;28;20111;-80
2022/03/20 08:05:01;;;;;;;22.42;17.80;;;4.30;97.20;;;;;;5033779;28;20108;-80
2022/03/20 08:07:26;;;;;;;22.83;17.00;;;4.30;97.00;;;;;;5034181;28;20477;-80
2022/03/20 08:09:52;;;;;;;21.50;16.95;;;4.40;96.50;;;;;;5033733;28;20049;-80
2022/03/20 08:12:18;;;;;;;23.25;17.25;;;4.50;96.50;;;;;;5033821;28;20045;-79
2022/03/20 08:14:44;;;;;;;21.33;17.02;;;4.60;96.30;;;;;;5016515;28;20045;-80
2022/03/20 08:17:10;;;;;;;26.73;18.17;;;4.60;95.90;;;;;;5015855;28;20045;-81
2022/03/20 08:19:36;;;;;;;21.77;17.70;;;4.70;95.10;;;;;;5016076;28;20060;-78
2022/03/20 08:22:05;;;;;;;20.63;16.33;;;4.70;95.40;;;;;;5033346;28;20056;-79
2022/03/20 08:24:31;;;;;;;20.38;15.95;;;4.80;95.20;;;;;;5033600;28;20429;-81
2022/03/20 08:26:57;;;;;;;24.67;17.20;;;4.80;94.70;;;;;;5033417;28;20056;-80
2022/03/20 08:29:23;;;;;;;22.13;16.33;;;4.90;94.60;;;;;;5016097;28;20486;-81
2022/03/20 08:31:49;;;;;;;22.73;17.63;;;4.90;93.60;;;;;;5016175;28;20041;-81
2022/03/20 08:34:15;;;;;;;24.98;17.92;;;5.00;93.80;;;;;;5016003;28;20477;-81
2022/03/20 08:36:42;;;;;;;19.02;16.75;;;5.00;93.70;;;;;;5016379;28;20194;-80
2022/03/20 08:39:08;;;;;;;24.95;18.13;;;5.10;93.50;;;;;;5015697;28;20129;-80
2022/03/20 08:41:35;;;;;;;25.08;18.50;;;5.10;93.10;;;;;;5036676;28;20505;-81
2022/03/20 08:44:04;;;;;;;22.58;18.33;;;5.10;92.70;;;;;;5016598;28;20049;-80
2022/03/20 08:46:31;;;;;;;22.77;16.92;;;5.20;92.60;;;;;;5045819;28;20152;-77
2022/03/20 08:48:57;;;;;;;24.95;18.67;;;5.20;92.30;;;;;;5047853;28;20106;-78
2022/03/20 08:51:23;;;;;;;25.60;18.20;;;5.30;91.40;;;;;;5032238;28;20045;-78
2022/03/20 08:53:49;;;;;;;23.48;17.92;;;5.30;91.40;;;;;;5043202;28;20041;-80
2022/03/20 08:56:15;;;;;;;26.10;18.20;;;5.30;91.60;;;;;;5032624;28;20088;-78
2022/03/20 08:58:41;;;;;;;22.15;17.67;;;5.40;90.90;;;;;;5039795;28;20398;-78
2022/03/20 09:01:07;;;;;;;26.67;18.45;;;5.40;90.50;;;;;;5032757;28;20056;-80
2022/03/20 09:03:33;;;;;;;26.83;18.35;;;5.50;89.90;;;;;;5033065;28;20052;-82
2022/03/20 09:05:59;;;;;;;23.73;18.60;;;5.60;89.70;;;;;;5032987;28;20394;-79
2022/03/20 09:08:24;;;;;;;23.42;18.15;;;5.70;89.60;;;;;;5032857;28;20050;-79
2022/03/20 09:10:53;;;;;;;21.73;18.13;;;5.70;88.20;;;;;;5015306;28;20037;-79
2022/03/20 09:13:18;;;;;;;23.25;18.70;;;5.80;87.90;;;;;;5016526;28;20503;-80
2022/03/20 09:15:44;;;;;;;23.63;18.10;;;5.80;87.30;;;;;;5034805;28;20050;-80
2022/03/20 09:20:54;;;;;;;22.70;18.40;;;5.90;85.00;;;;;;5033444;28;20053;-79
2022/03/20 09:23:19;;;;;;;24.95;18.08;;;6.00;85.30;;;;;;5033433;28;20523;-78
2022/03/20 09:25:45;;;;;;;26.95;19.63;;;6.00;83.80;;;;;;5033361;28;20045;-78
2022/03/20 09:28:11;;;;;;;21.98;18.42;;;6.10;83.90;;;;;;5015319;28;20057;-80
2022/03/20 09:30:38;;;;;;;25.38;18.77;;;6.20;83.90;;;;;;5015579;28;20049;-79
2022/03/20 09:33:05;;;;;;;22.85;18.67;;;6.20;84.30;;;;;;5032585;28;20124;-79
2022/03/20 09:35:32;;;;;;;24.17;18.52;;;6.30;84.00;;;;;;5033051;28;20054;-79
2022/03/20 09:37:58;;;;;;;23.52;19.10;;;6.40;83.40;;;;;;5032913;28;20045;-79
2022/03/20 09:40:24;;;;;;;23.52;18.98;;;6.40;81.70;;;;;;5032475;28;20045;-81
2022/03/20 09:42:50;;;;;;;26.30;18.85;;;6.40;81.10;;;;;;4999295;28;20437;-80
2022/03/20 09:45:17;;;;;;;22.83;19.13;;;6.50;81.50;;;;;;5032096;28;20098;-78
2022/03/20 09:47:44;;;;;;;25.50;19.05;;;6.50;80.50;;;;;;5015189;28;20406;-80
2022/03/20 09:50:10;;;;;;;26.70;19.83;;;6.70;80.20;;;;;;5014647;28;20049;-79
2022/03/20 09:52:37;;;;;;;22.52;18.60;;;6.70;79.30;;;;;;5014954;28;20045;-79
2022/03/20 09:55:03;;;;;;;25.80;19.55;;;6.80;79.70;;;;;;4998951;28;20402;-79
2022/03/20 09:57:32;;;;;;;25.52;19.38;;;6.90;78.60;;;;;;5031016;28;20107;-79
2022/03/20 09:59:58;;;;;;;27.35;20.13;;;7.00;77.50;;;;;;5032293;28;20049;-79
2022/03/20 10:02:27;;;;;;;23.60;19.05;;;7.00;76.00;;;;;;5031960;28;20056;-79
2022/03/20 10:04:58;;;;;;;28.52;19.67;;;7.20;76.20;;;;;;5032506;28;20053;-79
2022/03/20 10:07:30;;;;;;;25.95;19.35;;;7.20;77.50;;;;;;5014507;28;20123;-79
2022/03/20 10:10:13;;;;;;;24.35;19.90;;;7.30;72.80;;;;;;5032365;28;20058;-79
2022/03/20 10:12:44;;;;;;;27.58;20.45;;;7.30;74.60;;;;;;5015093;28;20132;-78
2022/03/20 10:15:30;;;;;;;26.90;20.27;;;7.40;75.10;;;;;;5014396;28;20045;-80
2022/03/20 10:18:17;;;;;;;28.90;19.75;;;7.40;74.40;;;;;;5031269;28;20508;-79
2022/03/20 10:20:59;;;;;;;24.25;19.63;;;7.50;72.60;;;;;;5036325;28;20041;-80
2022/03/20 10:23:36;;;;;;;26.33;20.33;;;7.60;68.50;;;;;;5035931;28;20053;-80
2022/03/20 10:26:05;;;;;;;25.58;20.30;;;7.70;70.20;;;;;;5037848;28;20049;-80
2022/03/20 10:28:39;;;;;;;29.02;19.40;;;7.70;72.10;;;;;;5022341;28;20320;-80
2022/03/20 10:31:06;;;;;;;28.42;19.90;;;7.80;69.80;;;;;;5038631;28;20041;-80
2022/03/20 10:33:35;;;;;;;25.90;20.27;;;7.80;68.60;;;;;;5032701;28;20105;-75
2022/03/20 10:36:18;;;;;;;27.92;21.10;;;7.90;68.60;;;;;;5043515;28;20052;-79
2022/03/20 10:38:45;;;;;;;27.88;21.27;;;8.00;65.30;;;;;;5042813;28;20030;-76
2022/03/20 10:41:28;;;;;;;27.35;20.92;;;8.00;68.20;;;;;;5039609;28;20055;-78
2022/03/20 10:43:56;;;;;;;25.27;20.25;;;8.10;65.10;;;;;;5035848;28;20044;-79
2022/03/20 10:46:23;;;;;;;28.48;21.52;;;8.20;65.10;;;;;;5017257;28;20049;-80
2022/03/20 10:48:52;;;;;;;26.20;21.05;;;8.20;65.60;;;;;;5018024;28;20085;-80
2022/03/20 10:51:38;;;;;;;29.80;20.45;;;8.30;65.60;;;;;;5035366;28;20050;-81
2022/03/20 10:54:20;;;;;;;29.02;21.15;;;8.40;61.90;;;;;;5035463;28;20060;-80
2022/03/20 10:56:56;;;;;;;26.20;20.73;;;8.40;63.90;;;;;;5035860;28;20049;-80
2022/03/20 10:59:22;;;;;;;26.98;21.60;;;8.50;62.50;;;;;;5017530;28;20486;-81
2022/03/20 11:01:48;;;;;;;24.40;19.95;;;8.50;63.70;;;;;;5001503;28;20041;-80
2022/03/20 11:04:15;;;;;;;28.08;21.80;;;8.50;63.00;;;;;;5035234;28;20044;-79
2022/03/20 11:06:45;;;;;;;27.50;21.15;;;8.60;62.30;;;;;;5001318;28;20132;-80
2022/03/20 11:09:11;;;;;;;29.50;21.87;;;8.60;62.90;;;;;;5035382;28;20045;-79
2022/03/20 11:11:51;;;;;;;25.50;19.80;;;8.80;61.80;;;;;;5001191;28;20259;-82
2022/03/20 11:14:19;;;;;;;27.35;21.75;;;8.90;60.60;;;;;;5017810;28;20500;-83
2022/03/20 11:16:49;;;;;;;26.23;21.13;;;8.90;62.60;;;;;;5033966;28;20127;-82
2022/03/20 11:19:17;;;;;;;27.65;21.42;;;9.10;62.60;;;;;;5001149;28;20089;-82
2022/03/20 11:21:44;;;;;;;25.23;20.40;;;9.20;62.80;;;;;;5017397;28;20053;-82
2022/03/20 11:24:11;;;;;;;29.70;21.40;;;9.30;60.30;;;;;;5034971;28;20049;-83
2022/03/20 11:26:40;;;;;;;25.55;20.70;;;9.40;60.40;;;;;;5017019;28;20120;-82
2022/03/20 11:29:08;;;;;;;26.45;21.35;;;9.50;59.90;;;;;;4999960;28;20398;-82
2022/03/20 11:31:35;;;;;;;27.23;20.73;;;9.60;60.00;;;;;;4985011;28;20050;-82
2022/03/20 11:34:08;;;;;;;28.42;21.30;;;9.60;60.10;;;;;;4984619;28;20052;-83
2022/03/20 11:37:06;;;;;;;28.20;21.75;;;9.70;58.40;;;;;;5017056;28;20049;-82
2022/03/20 11:39:33;;;;;;;26.45;21.30;;;9.90;57.90;;;;;;5034596;28;20103;-83
2022/03/20 11:42:24;;;;;;;24.85;20.55;;;9.90;58.40;;;;;;5017091;28;20095;-83
2022/03/20 11:44:53;;;;;;;;;;;10.00;57.20;;;;;;5035015;28;20045;-81
2022/03/20 11:47:19;;;;;;;30.13;22.23;;;10.00;55.60;;;;;;5034289;28;19921;-82
2022/03/20 11:50:24;;;;;;;27.65;21.20;;;10.00;58.50;;;;;;4999988;28;20583;-82
2022/03/20 11:52:58;;;;;;;25.05;20.40;;;10.00;54.50;;;;;;5017014;28;20103;-81
2022/03/20 11:55:33;;;;;;;28.02;22.50;;;10.00;56.80;;;;;;5016383;28;20053;-82
2022/03/20 11:58:22;;;;;;;27.08;21.65;;;10.10;56.00;;;;;;5034262;28;20049;-80
2022/03/20 12:01:04;;;;;;;30.00;23.38;;;10.20;55.50;;;;;;5024872;28;20463;-79
2022/03/20 12:03:50;;;;;;;29.73;22.73;;;10.20;56.40;;;;;;5034069;28;20045;-81
2022/03/20 12:06:19;;;;;;;28.92;21.45;;;10.30;56.60;;;;;;5016756;28;20061;-81
2022/03/20 12:09:17;;;;;;;28.42;22.42;;;10.30;55.30;;;;;;5033590;28;20046;-80
2022/03/20 12:12:11;;;;;;;27.70;22.08;;;10.40;56.80;;;;;;5005281;28;20093;-79
2022/03/20 12:14:51;;;;;;;26.30;21.90;;;10.50;53.30;;;;;;5035203;28;20049;-79
2022/03/20 12:17:16;;;;;;;28.90;22.83;;;10.50;53.60;;;;;;5021903;28;20052;-80
2022/03/20 12:19:44;;;;;;;27.20;22.30;;;10.50;54.20;;;;;;5018733;28;20046;-80
2022/03/20 12:22:14;;;;;;;27.38;21.90;;;10.50;54.30;;;;;;5001444;28;20087;-81
2022/03/20 12:24:51;;;;;;;28.52;21.45;;;10.60;54.30;;;;;;5033152;28;20060;-74
2022/03/20 12:27:22;;;;;;;31.00;21.67;;;10.70;53.70;;;;;;5049441;28;20040;-75
2022/03/20 12:29:51;;;;;;;31.42;22.70;;;10.70;54.10;;;;;;5051430;28;20360;-75
2022/03/20 12:32:17;;;;;;;27.10;21.90;;;10.70;53.70;;;;;;5027274;28;20496;-80
2022/03/20 12:34:44;;;;;;;26.58;21.83;;;10.70;53.70;;;;;;5010411;28;20545;-79
2022/03/20 12:37:28;;;;;;;25.08;21.25;;;10.70;53.30;;;;;;5033033;28;20129;-80
2022/03/20 12:39:55;;;;;;;29.02;21.88;;;10.80;52.60;;;;;;5034815;28;20095;-79
2022/03/20 12:42:24;;;;;;;27.17;21.63;;;10.70;53.50;;;;;;5017339;28;20042;-77
2022/03/20 12:44:51;;;;;;;26.48;21.88;;;10.60;52.90;;;;;;5033967;28;20096;-78
2022/03/20 12:47:17;;;;;;;29.38;22.85;;;10.60;53.30;;;;;;5034320;28;20064;-79
2022/03/20 12:49:43;;;;;;;27.67;21.92;;;10.60;53.10;;;;;;5014492;28;20128;-78
2022/03/20 12:52:09;;;;;;;26.02;21.75;;;10.50;53.00;;;;;;4999933;28;20466;-78
2022/03/20 12:54:35;;;;;;;27.65;22.88;;;10.50;53.60;;;;;;5016463;28;20068;-79
2022/03/20 12:57:03;;;;;;;28.15;22.70;;;10.60;54.10;;;;;;5034838;28;20091;-79
2022/03/20 12:59:29;;;;;;;27.45;22.02;;;10.50;54.30;;;;;;5017172;28;20108;-78
2022/03/20 13:01:55;;;;;;;30.52;22.50;;;10.50;54.10;;;;;;5033820;28;20448;-79
2022/03/20 13:04:21;;;;;;;27.63;21.92;;;10.60;53.70;;;;;;5000128;28;20041;-79
2022/03/20 13:06:48;;;;;;;30.48;22.35;;;10.60;53.30;;;;;;5015563;28;20088;-79
2022/03/20 13:09:14;;;;;;;26.52;21.90;;;10.60;53.70;;;;;;5033485;28;20056;-79
2022/03/20 13:11:52;;;;;;;27.13;22.40;;;10.60;53.70;;;;;;5015836;28;20060;-80